Time;durP1;ratioP1;P1;durP2;ratioP2;P2;SDS_P1;SDS_P2;PMS_P1;PMS_P2;Temp;Humidity;BMP_temperature;BMP_pressure;BME280_temperature;BME280_humidity;BME280_pressure;Samples;Min_cycle;Max_cycle;Signal;HPM_P1;HPM_P2
2022/07/20 00:00:37;;;;;;;17.35;4.15;;;;;;;17.43;78.77;98224.41;5126605;28;20026;-67
2022/07/20 00:03:08;;;;;;;11.73;3.47;;;;;;;17.45;78.53;98228.69;5126923;28;20024;-67
2022/07/20 00:05:34;;;;;;;16.30;3.85;;;;;;;17.33;78.89;98225.81;5126907;28;20264;-67
2022/07/20 00:07:59;;;;;;;10.63;3.83;;;;;;;17.36;79.41;98231.81;5126608;28;20028;-67
2022/07/20 00:13:10;;;;;;;10.07;3.65;;;;;;;17.13;79.82;98233.03;5126602;28;20295;-67
2022/07/20 00:15:35;;;;;;;7.25;3.63;;;;;;;17.10;80.25;98227.84;5126489;28;20088;-67
2022/07/20 00:18:01;;;;;;;8.27;3.90;;;;;;;17.17;80.30;98221.28;5126418;28;20087;-67
2022/07/20 00:20:26;;;;;;;6.18;3.60;;;;;;;17.06;80.22;98220.94;5125973;28;20323;-67
2022/07/20 00:22:52;;;;;;;13.77;3.53;;;;;;;17.07;80.25;98228.00;5125820;28;20030;-67
2022/07/20 00:25:19;;;;;;;5.63;3.63;;;;;;;17.08;79.93;98224.41;5126545;28;20319;-67
2022/07/20 00:27:44;;;;;;;9.25;3.47;;;;;;;16.93;80.39;98224.34;5125976;28;20231;-67
2022/07/20 00:30:11;;;;;;;7.32;3.55;;;;;;;16.94;80.78;98221.59;5126199;28;20020;-67
2022/07/20 00:32:37;;;;;;;9.07;3.97;;;;;;;16.81;80.58;98220.47;5126397;28;20027;-67
2022/07/20 00:35:05;;;;;;;6.00;3.20;;;;;;;16.80;81.28;98212.63;5126051;28;20129;-67
2022/07/20 00:37:30;;;;;;;9.75;4.25;;;;;;;16.89;81.33;98215.66;5125978;28;20028;-67
2022/07/20 00:39:56;;;;;;;7.35;3.53;;;;;;;16.87;81.42;98214.84;5125896;28;20019;-67
2022/07/20 00:42:21;;;;;;;9.57;3.63;;;;;;;16.84;81.22;98209.69;5125902;28;20023;-67
2022/07/20 00:44:47;;;;;;;10.10;4.10;;;;;;;16.71;81.85;98213.91;5125889;28;20030;-67
2022/07/20 00:47:12;;;;;;;9.43;4.00;;;;;;;16.75;81.72;98215.50;5125861;28;20077;-67
2022/07/20 00:49:37;;;;;;;6.65;4.05;;;;;;;16.70;82.00;98214.00;5125785;28;20030;-67
2022/07/20 00:52:04;;;;;;;10.27;3.95;;;;;;;16.63;81.74;98210.81;5107568;28;20068;-67
2022/07/20 00:54:29;;;;;;;9.35;3.90;;;;;;;16.64;81.50;98212.50;5125756;28;20311;-67
2022/07/20 00:56:55;;;;;;;5.90;3.50;;;;;;;16.72;81.75;98218.31;5125723;28;20026;-67
2022/07/20 00:59:20;;;;;;;8.77;4.05;;;;;;;16.66;81.34;98210.66;5125546;28;20019;-67
2022/07/20 01:01:46;;;;;;;11.93;3.90;;;;;;;16.64;82.07;98223.13;5125476;28;20028;-67
2022/07/20 01:04:11;;;;;;;9.32;4.47;;;;;;;16.56;82.19;98220.03;5125483;28;20042;-67
2022/07/20 01:06:37;;;;;;;7.28;4.10;;;;;;;16.50;82.65;98219.44;5125697;28;20020;-67
2022/07/20 01:09:02;;;;;;;7.53;3.95;;;;;;;16.56;82.65;98225.34;5125456;28;20315;-67
2022/07/20 01:11:28;;;;;;;8.48;3.85;;;;;;;16.50;83.02;98217.66;5125349;28;20011;-67
2022/07/20 01:14:00;;;;;;;9.65;3.50;;;;;;;16.45;82.58;98213.53;5125544;28;20027;-67
2022/07/20 01:16:26;;;;;;;9.70;3.83;;;;;;;16.47;82.67;98220.47;5125358;28;20068;-67
2022/07/20 01:18:51;;;;;;;20.48;4.47;;;;;;;16.40;83.34;98218.16;5125205;28;20086;-67
2022/07/20 01:21:17;;;;;;;9.48;3.92;;;;;;;16.42;83.22;98227.75;5125087;28;20061;-67
2022/07/20 01:23:42;;;;;;;5.10;3.40;;;;;;;16.42;83.20;98222.44;5125143;28;20031;-67
2022/07/20 01:26:08;;;;;;;10.85;4.15;;;;;;;16.39;83.20;98232.38;5125035;28;20030;-67
2022/07/20 01:28:33;;;;;;;10.90;4.00;;;;;;;16.46;83.28;98213.41;5124857;28;20270;-67
2022/07/20 01:30:59;;;;;;;8.05;3.40;;;;;;;16.43;83.21;98224.22;5124999;28;20188;-67
2022/07/20 01:33:24;;;;;;;10.13;4.03;;;;;;;16.43;83.00;98224.22;5124874;28;20064;-67
2022/07/20 01:35:50;;;;;;;7.95;3.72;;;;;;;16.30;83.70;98227.50;5124990;28;20023;-67
2022/07/20 01:38:15;;;;;;;6.05;3.83;;;;;;;16.33;84.04;98224.69;5124908;28;20057;-67
2022/07/20 01:40:41;;;;;;;12.75;4.10;;;;;;;16.39;83.82;98227.91;5124998;28;20039;-67
2022/07/20 01:43:06;;;;;;;8.88;3.83;;;;;;;16.23;83.93;98232.25;5124821;28;20026;-67
2022/07/20 01:45:32;;;;;;;8.82;3.80;;;;;;;16.31;83.86;98224.78;5124831;28;20250;-67
2022/07/20 01:47:57;;;;;;;8.80;3.97;;;;;;;16.29;84.13;98231.94;5124759;28;20023;-67
2022/07/20 01:50:23;;;;;;;11.77;4.32;;;;;;;16.24;84.15;98230.47;5124727;28;20015;-67
2022/07/20 01:52:48;;;;;;;8.10;3.97;;;;;;;16.34;83.81;98229.94;5123498;28;20049;-67
2022/07/20 01:55:15;;;;;;;9.38;4.32;;;;;;;16.28;84.34;98230.22;5124673;28;20019;-67
2022/07/20 01:57:41;;;;;;;8.25;4.13;;;;;;;16.32;84.02;98236.25;5124554;28;20023;-67
2022/07/20 02:00:09;;;;;;;7.95;4.00;;;;;;;16.38;83.24;98226.19;5124507;28;20023;-67
2022/07/20 02:02:35;;;;;;;12.75;4.32;;;;;;;16.40;83.57;98229.66;5124841;28;20273;-67
2022/07/20 02:05:00;;;;;;;9.20;3.85;;;;;;;16.38;83.44;98236.81;5124577;28;20023;-67
2022/07/20 02:08:25;;;;;;;7.28;3.85;;;;;;;16.36;84.09;98233.38;5124492;28;20031;-67
2022/07/20 02:10:51;;;;;;;12.20;3.88;;;;;;;16.40;83.80;98240.28;5124388;28;20023;-67
2022/07/20 02:13:16;;;;;;;9.75;3.95;;;;;;;16.40;84.19;98234.97;5124478;28;20027;-67
2022/07/20 02:18:26;;;;;;;17.50;4.60;;;;;;;16.40;84.42;98234.97;5124628;28;20095;-67
2022/07/20 02:20:51;;;;;;;11.35;4.43;;;;;;;16.43;84.14;98229.53;5124361;28;20016;-67
2022/07/20 02:23:17;;;;;;;8.07;4.78;;;;;;;16.45;84.14;98230.31;5124385;28;20342;-67
2022/07/20 02:25:42;;;;;;;6.45;3.83;;;;;;;16.41;84.04;98226.03;5124378;28;20095;-67
2022/07/20 02:28:08;;;;;;;9.23;4.22;;;;;;;16.28;84.81;98224.94;5119012;28;20036;-67
2022/07/20 02:30:34;;;;;;;15.55;4.20;;;;;;;16.31;84.88;98224.78;5124330;28;20039;-67
2022/07/20 02:33:01;;;;;;;10.65;3.97;;;;;;;16.36;84.64;98221.91;5124538;28;20241;-67
2022/07/20 02:35:26;;;;;;;9.43;4.40;;;;;;;16.36;85.01;98225.41;5124524;28;20019;-67
2022/07/20 02:37:52;;;;;;;9.68;4.47;;;;;;;16.34;84.96;98229.94;5124201;28;20024;-67
2022/07/20 02:40:17;;;;;;;12.73;4.63;;;;;;;16.36;85.24;98228.06;5124158;28;20023;-67
2022/07/20 02:42:43;;;;;;;11.63;4.30;;;;;;;16.36;84.60;98238.69;5124401;28;20047;-67
2022/07/20 02:45:10;;;;;;;8.13;3.90;;;;;;;16.41;84.68;98241.13;5126289;28;20192;-67
2022/07/20 02:47:46;;;;;;;13.50;4.22;;;;;;;16.35;84.94;98246.72;5128410;28;20023;-67
2022/07/20 02:50:12;;;;;;;8.23;4.65;;;;;;;16.32;85.02;98245.09;5128267;28;20019;-67
2022/07/20 02:52:39;;;;;;;8.93;4.10;;;;;;;16.33;84.50;98244.13;5128074;28;20025;-67
2022/07/20 02:55:05;;;;;;;6.75;4.13;;;;;;;16.38;84.54;98246.56;5128295;28;20061;-67
2022/07/20 02:57:31;;;;;;;8.18;4.10;;;;;;;16.40;84.76;98250.03;5127927;28;20253;-67
2022/07/20 02:59:56;;;;;;;11.02;3.85;;;;;;;16.23;85.15;98256.13;5128144;28;20015;-67
2022/07/20 03:02:21;;;;;;;7.78;4.03;;;;;;;16.27;85.40;98244.47;5127943;28;20065;-67
2022/07/20 03:04:47;;;;;;;10.70;4.60;;;;;;;16.32;85.12;98247.75;5127865;28;20019;-67
2022/07/20 03:07:12;;;;;;;12.13;4.20;;;;;;;16.32;85.64;98253.06;5127822;28;20334;-67
2022/07/20 03:09:38;;;;;;;8.48;4.28;;;;;;;16.31;85.52;98251.34;5127760;28;20019;-67
2022/07/20 03:12:03;;;;;;;12.18;6.18;;;;;;;16.26;85.99;98253.34;5127693;28;20023;-67
2022/07/20 03:14:29;;;;;;;10.77;4.10;;;;;;;16.33;85.80;98260.06;5127650;28;20031;-67
2022/07/20 03:16:54;;;;;;;12.60;4.30;;;;;;;16.33;85.66;98257.41;5127720;28;20015;-67
2022/07/20 03:19:19;;;;;;;9.63;3.70;;;;;;;16.19;86.39;98262.53;5127552;28;20061;-67
2022/07/20 03:21:45;;;;;;;13.57;4.65;;;;;;;16.30;86.03;98265.53;5127469;28;20043;-67
2022/07/20 03:24:10;;;;;;;7.25;4.43;;;;;;;16.16;86.27;98257.38;5127482;28;20019;-67
2022/07/20 03:26:35;;;;;;;9.05;4.95;;;;;;;16.18;86.37;98265.25;5127463;28;20368;-67
2022/07/20 03:29:01;;;;;;;10.95;4.68;;;;;;;16.12;86.72;98261.13;5127183;28;20036;-67
2022/07/20 03:31:26;;;;;;;10.18;4.55;;;;;;;16.05;86.95;98254.38;5127616;28;20015;-67
2022/07/20 03:33:51;;;;;;;9.95;4.43;;;;;;;16.03;86.87;98258.88;5127355;28;20019;-67
2022/07/20 03:36:17;;;;;;;7.75;4.32;;;;;;;16.02;87.16;98253.66;5127234;28;20287;-67
2022/07/20 03:38:42;;;;;;;10.55;4.70;;;;;;;16.05;87.08;98259.69;5127193;28;20023;-67
2022/07/20 03:41:08;;;;;;;11.50;4.60;;;;;;;16.12;86.63;98250.50;5127024;28;20020;-67
2022/07/20 03:43:33;;;;;;;7.47;3.90;;;;;;;16.16;86.59;98254.72;5127119;28;20257;-67
2022/07/20 03:45:58;;;;;;;9.48;4.72;;;;;;;16.18;86.49;98247.56;5127312;28;20057;-67
2022/07/20 03:48:24;;;;;;;12.18;4.05;;;;;;;16.18;86.68;98255.53;5127069;28;20027;-67
2022/07/20 03:50:49;;;;;;;10.88;4.60;;;;;;;16.16;86.81;98252.06;5126913;28;20072;-67
2022/07/20 03:53:14;;;;;;;7.57;4.43;;;;;;;16.06;87.37;98250.78;5126934;28;20023;-67
2022/07/20 03:55:40;;;;;;;12.00;4.50;;;;;;;15.99;87.24;98244.03;5125820;28;20245;-67
2022/07/20 03:58:05;;;;;;;9.55;4.90;;;;;;;16.03;87.59;98261.53;5126490;28;20024;-67
2022/07/20 04:00:31;;;;;;;8.95;4.47;;;;;;;16.13;87.16;98254.84;5126716;28;20027;-67
2022/07/20 04:02:57;;;;;;;11.52;5.07;;;;;;;16.04;87.75;98247.31;5126809;28;20024;-67
2022/07/20 04:05:22;;;;;;;10.43;4.65;;;;;;;16.11;87.31;98254.06;5126741;28;20024;-67
2022/07/20 04:07:47;;;;;;;8.60;4.72;;;;;;;16.14;87.48;98258.38;5126925;28;20028;-67
2022/07/20 04:10:13;;;;;;;10.73;4.90;;;;;;;16.21;87.14;98260.69;5126615;28;20039;-67
2022/07/20 04:12:38;;;;;;;9.50;5.03;;;;;;;16.27;87.30;98263.06;5126571;28;20087;-67
2022/07/20 04:15:04;;;;;;;9.85;4.28;;;;;;;16.35;86.57;98279.47;5126546;28;20023;-67
2022/07/20 04:17:30;;;;;;;12.55;5.18;;;;;;;16.45;86.14;98270.16;5126503;28;20372;-67
2022/07/20 04:19:55;;;;;;;11.05;5.55;;;;;;;16.40;86.14;98271.28;5126388;28;20061;-67
2022/07/20 04:22:20;;;;;;;7.40;4.57;;;;;;;16.43;86.27;98276.47;5126320;28;20015;-67
2022/07/20 04:24:46;;;;;;;7.43;4.03;;;;;;;16.60;85.70;98280.03;5126304;28;20027;-67
2022/07/20 04:27:12;;;;;;;6.30;4.32;;;;;;;16.57;85.50;98280.19;5126040;28;20023;-67
2022/07/20 04:29:37;;;;;;;8.82;4.25;;;;;;;16.62;85.19;98283.50;5126209;28;20076;-67
2022/07/20 04:32:03;;;;;;;6.97;4.22;;;;;;;16.68;85.19;98285.81;5126436;28;20012;-67
2022/07/20 04:34:28;;;;;;;9.43;4.10;;;;;;;16.77;85.24;98282.72;5126383;28;20053;-67
2022/07/20 04:36:54;;;;;;;7.40;4.07;;;;;;;16.81;85.83;98284.28;5126082;28;20042;-67
2022/07/20 04:39:20;;;;;;;7.07;4.13;;;;;;;16.95;85.19;98288.91;5126031;28;20272;-67
2022/07/20 04:41:45;;;;;;;8.88;4.22;;;;;;;17.03;84.66;98290.25;5126172;28;20034;-67
2022/07/20 04:44:11;;;;;;;11.85;4.65;;;;;;;16.99;85.87;98296.66;5125885;28;20015;-67
2022/07/20 04:46:36;;;;;;;7.68;4.10;;;;;;;17.13;84.54;98291.53;5125888;28;20043;-67
2022/07/20 04:49:02;;;;;;;8.32;4.18;;;;;;;17.22;84.03;98299.00;5125789;28;20095;-67
2022/07/20 04:51:28;;;;;;;10.77;5.45;;;;;;;17.56;82.03;98300.81;5125789;28;20027;-67
2022/07/20 04:53:53;;;;;;;10.63;4.60;;;;;;;18.69;78.59;98307.91;5125779;28;20023;-67
2022/07/20 04:56:19;;;;;;;10.30;4.75;;;;;;;19.78;74.30;98312.97;5125631;28;20082;-67
2022/07/20 04:58:52;;;;;;;12.38;4.50;;;;;;;20.54;70.74;98316.09;5125571;28;20027;-67
2022/07/20 05:01:19;;;;;;;7.63;4.57;;;;;;;21.23;67.36;98316.84;5125752;28;20019;-67
2022/07/20 05:03:44;;;;;;;8.52;3.85;;;;;;;21.79;65.57;98320.19;5125542;28;20019;-67
2022/07/20 05:06:09;;;;;;;7.75;4.22;;;;;;;22.30;63.44;98321.94;5125481;28;20088;-67
2022/07/20 05:08:35;;;;;;;7.68;4.40;;;;;;;22.75;62.68;98332.06;5125078;28;20048;-67
2022/07/20 05:11:00;;;;;;;10.45;4.25;;;;;;;23.24;62.11;98338.22;5125622;28;20019;-67
2022/07/20 05:13:26;;;;;;;6.97;4.45;;;;;;;23.52;61.04;98332.47;5125365;28;20045;-67
2022/07/20 05:15:51;;;;;;;8.30;3.30;;;;;;;23.70;59.07;98331.09;5125319;28;20253;-67
2022/07/20 05:18:16;;;;;;;6.75;3.95;;;;;;;23.90;60.22;98333.06;5125264;28;20027;-67
2022/07/20 05:20:42;;;;;;;7.88;4.00;;;;;;;24.19;59.38;98341.56;5125179;28;20026;-67
2022/07/20 05:23:07;;;;;;;5.82;3.75;;;;;;;24.68;58.16;98348.34;5125428;28;20027;-67
2022/07/20 05:25:33;;;;;;;8.25;4.03;;;;;;;24.43;57.71;98343.16;5125169;28;20054;-67
2022/07/20 05:27:58;;;;;;;5.85;3.58;;;;;;;25.07;57.15;98361.28;5124808;28;20108;-67
2022/07/20 05:30:24;;;;;;;7.70;4.00;;;;;;;25.28;56.90;98354.09;5125118;28;20019;-67
2022/07/20 05:32:49;;;;;;;10.88;3.75;;;;;;;24.47;55.35;98333.91;5125005;28;20058;-67
2022/07/20 05:35:14;;;;;;;7.63;3.83;;;;;;;24.83;57.10;98355.19;5125035;28;20023;-67
2022/07/20 05:37:40;;;;;;;6.88;3.58;;;;;;;25.93;55.84;98361.19;5124957;28;20030;-67
2022/07/20 05:40:07;;;;;;;9.82;3.85;;;;;;;26.31;55.44;98366.88;5124837;28;20023;-67
2022/07/20 05:42:32;;;;;;;10.00;4.10;;;;;;;26.61;53.61;98369.59;5125135;28;20023;-67
2022/07/20 05:44:57;;;;;;;8.90;3.92;;;;;;;26.84;53.75;98380.09;5124839;28;20090;-67
2022/07/20 05:47:23;;;;;;;8.90;4.05;;;;;;;27.31;52.22;98380.41;5124755;28;20084;-67
2022/07/20 05:49:48;;;;;;;10.18;4.45;;;;;;;27.27;51.55;98380.66;5124770;28;20019;-67
2022/07/20 05:52:17;;;;;;;13.10;4.43;;;;;;;27.45;50.78;98383.53;5124699;28;20020;-68
2022/07/20 05:54:43;;;;;;;6.85;4.15;;;;;;;26.50;52.03;98366.97;5124599;28;20020;-68
2022/07/20 05:57:08;;;;;;;6.65;3.95;;;;;;;27.00;51.94;98388.53;5124952;28;20024;-68
2022/07/20 05:59:34;;;;;;;6.65;4.15;;;;;;;27.57;50.31;98387.84;5124729;28;20019;-68
2022/07/20 06:01:59;;;;;;;10.60;3.97;;;;;;;28.36;50.24;98403.78;5124592;28;20024;-68
2022/07/20 06:04:24;;;;;;;10.77;4.57;;;;;;;28.83;49.58;98413.66;5124621;28;20019;-68
2022/07/20 06:06:50;;;;;;;7.45;4.30;;;;;;;29.25;49.39;98416.75;5124537;28;20027;-68
2022/07/20 06:09:15;;;;;;;9.98;4.25;;;;;;;29.46;48.81;98416.50;5124731;28;20303;-68
2022/07/20 06:11:41;;;;;;;16.00;4.15;;;;;;;29.52;46.79;98405.91;5124531;28;20041;-68
2022/07/20 06:14:06;;;;;;;7.70;4.30;;;;;;;29.87;46.92;98407.81;5124524;28;20030;-68
2022/07/20 06:16:32;;;;;;;9.02;4.20;;;;;;;29.74;48.14;98410.88;5124477;28;20023;-68
2022/07/20 06:18:57;;;;;;;6.38;3.88;;;;;;;30.48;45.92;98416.84;5124547;28;20205;-68
2022/07/20 06:21:22;;;;;;;16.70;5.72;;;;;;;30.51;44.78;98405.66;5128608;28;20019;-68
2022/07/20 06:23:48;;;;;;;17.38;4.38;;;;;;;30.78;45.86;98416.41;5128635;28;20023;-68
2022/07/20 06:26:13;;;;;;;11.85;6.00;;;;;;;31.15;44.85;98416.91;5128675;28;20311;-68
2022/07/20 06:28:38;;;;;;;18.45;11.02;;;;;;;32.37;44.75;98437.03;5128365;28;20054;-68
2022/07/20 06:31:06;;;;;;;26.20;17.02;;;;;;;32.93;43.21;98436.97;5128522;28;20026;-68
2022/07/20 06:33:32;;;;;;;32.45;19.17;;;;;;;33.49;40.35;98432.34;5128424;28;20319;-68
2022/07/20 06:35:57;;;;;;;25.45;14.68;;;;;;;33.95;40.54;98450.56;5128538;28;20023;-68
2022/07/20 06:38:22;;;;;;;21.73;10.85;;;;;;;34.01;41.22;98449.84;5128362;28;20043;-68
2022/07/20 06:40:48;;;;;;;16.65;8.88;;;;;;;34.77;37.91;98456.09;5128264;28;20204;-68
2022/07/20 06:43:13;;;;;;;18.42;8.90;;;;;;;34.65;38.97;98452.09;5128280;28;20026;-68
2022/07/20 06:45:38;;;;;;;11.85;9.20;;;;;;;34.96;37.73;98450.13;5128237;28;20025;-68
2022/07/20 06:48:04;;;;;;;15.85;9.68;;;;;;;34.84;37.84;98443.38;5128278;28;20031;-68
2022/07/20 06:50:29;;;;;;;16.60;10.07;;;;;;;35.40;37.21;98456.44;5128178;28;20015;-68
2022/07/20 06:52:55;;;;;;;20.23;10.25;;;;;;;35.19;36.72;98450.88;5128257;28;20219;-68
2022/07/20 06:55:20;;;;;;;19.83;9.88;;;;;;;35.78;35.81;98459.91;5128041;28;20024;-68
2022/07/20 06:57:46;;;;;;;21.67;10.13;;;;;;;36.31;36.37;98474.06;5127982;28;20064;-68
2022/07/20 07:00:12;;;;;;;20.75;11.00;;;;;;;36.27;35.60;98467.28;5127914;28;20342;-68
2022/07/20 07:02:38;;;;;;;23.67;11.32;;;;;;;36.16;36.67;98475.97;5127954;28;20024;-68
2022/07/20 07:05:04;;;;;;;24.95;11.93;;;;;;;36.66;35.75;98467.66;5128172;28;20261;-68
2022/07/20 07:07:30;;;;;;;27.63;12.25;;;;;;;36.23;35.83;98465.94;5127835;28;20342;-68
2022/07/20 07:09:55;;;;;;;22.73;11.05;;;;;;;36.12;35.25;98458.22;5127855;28;20016;-68
2022/07/20 07:12:21;;;;;;;21.90;9.88;;;;;;;35.97;35.55;98476.59;5127721;28;20015;-68
2022/07/20 07:14:47;;;;;;;19.38;10.40;;;;;;;36.16;35.52;98467.75;5127677;28;20036;-68
2022/07/20 07:17:12;;;;;;;24.42;10.63;;;;;;;36.55;34.13;98481.06;5127644;28;20023;-68
2022/07/20 07:19:39;;;;;;;26.10;10.60;;;;;;;36.42;34.98;98491.91;5127813;28;20015;-68
2022/07/20 07:22:05;;;;;;;23.90;9.75;;;;;;;36.84;33.87;98495.50;5127452;28;20083;-68
2022/07/20 07:24:30;;;;;;;22.33;10.38;;;;;;;37.10;33.19;98494.00;5127559;28;20030;-68
2022/07/20 07:26:56;;;;;;;22.48;10.48;;;;;;;36.39;34.32;98490.41;5127678;28;20087;-68
2022/07/20 07:29:21;;;;;;;23.30;10.00;;;;;;;36.33;35.08;98493.91;5127240;28;20039;-68
2022/07/20 07:31:46;;;;;;;27.90;9.93;;;;;;;35.66;35.76;98484.22;5126984;28;20019;-68
2022/07/20 07:34:12;;;;;;;22.00;10.00;;;;;;;35.79;36.06;98478.91;5127340;28;20215;-68
2022/07/20 07:36:37;;;;;;;25.17;9.82;;;;;;;36.43;33.19;98486.22;5127286;28;20345;-68
2022/07/20 07:39:03;;;;;;;23.40;9.88;;;;;;;36.53;33.71;98489.47;5127192;28;20023;-68
2022/07/20 07:41:28;;;;;;;17.45;8.85;;;;;;;36.74;34.13;98496.88;5127118;28;20027;-68
2022/07/20 07:43:53;;;;;;;19.08;8.77;;;;;;;36.37;33.94;98488.88;5127113;28;20020;-68
2022/07/20 07:46:19;;;;;;;20.58;8.75;;;;;;;36.50;33.54;98487.13;5127081;28;20026;-68
2022/07/20 07:48:44;;;;;;;18.88;9.13;;;;;;;36.35;33.41;98489.06;5127077;28;20023;-68
2022/07/20 07:51:10;;;;;;;18.17;8.65;;;;;;;36.11;34.73;98499.53;5127062;28;20027;-68
2022/07/20 07:53:35;;;;;;;20.25;8.40;;;;;;;36.66;34.09;98506.06;5126959;28;20214;-68
2022/07/20 07:56:01;;;;;;;17.70;8.82;;;;;;;37.20;32.44;98508.25;5126936;28;20028;-68
2022/07/20 07:58:26;;;;;;;17.38;8.27;;;;;;;37.19;33.48;98512.88;5126898;28;20315;-68
2022/07/20 08:00:51;;;;;;;18.83;9.25;;;;;;;37.46;32.08;98513.91;5126666;28;20082;-68
2022/07/20 08:03:17;;;;;;;17.88;9.10;;;;;;;36.50;33.60;98503.56;5126792;28;20024;-68
2022/07/20 08:05:42;;;;;;;20.42;8.73;;;;;;;35.14;35.04;98499.84;5126969;28;20023;-68
2022/07/20 08:08:10;;;;;;;21.20;9.38;;;;;;;36.01;34.17;98518.19;5126683;28;20026;-68
2022/07/20 08:10:37;;;;;;;19.48;8.40;;;;;;;36.54;33.76;98529.56;5126660;28;20050;-68
2022/07/20 08:13:03;;;;;;;17.00;8.68;;;;;;;36.39;33.79;98511.47;5126667;28;20039;-68
2022/07/20 08:15:29;;;;;;;22.45;8.70;;;;;;;37.05;33.07;98522.06;5126566;28;20027;-68
2022/07/20 08:17:54;;;;;;;17.55;8.10;;;;;;;37.52;31.58;98535.09;5126564;28;20027;-68
2022/07/20 08:20:22;;;;;;;16.73;8.60;;;;;;;37.29;33.00;98529.84;5126373;28;20065;-68
2022/07/20 08:22:48;;;;;;;21.38;8.73;;;;;;;36.76;33.38;98524.97;5126632;28;20027;-68
2022/07/20 08:25:14;;;;;;;19.15;7.68;;;;;;;37.55;32.88;98531.94;5126320;28;20418;-68
2022/07/20 08:27:39;;;;;;;18.05;8.38;;;;;;;37.64;30.63;98528.00;5126000;28;20047;-68
2022/07/20 08:30:05;;;;;;;24.25;8.45;;;;;;;38.10;31.34;98534.59;5126262;28;20211;-68
2022/07/20 08:32:31;;;;;;;13.88;8.20;;;;;;;38.36;30.47;98526.44;5126219;28;20091;-68
2022/07/20 08:34:57;;;;;;;14.85;8.30;;;;;;;38.37;30.47;98528.16;5126219;28;20031;-68
2022/07/20 08:37:22;;;;;;;16.38;8.80;;;;;;;38.28;30.33;98526.63;5126345;28;20019;-68
2022/07/20 08:39:48;;;;;;;17.27;8.45;;;;;;;38.65;30.91;98528.84;5126035;28;20027;-68
2022/07/20 08:42:14;;;;;;;19.77;8.65;;;;;;;38.95;29.85;98535.66;5125399;28;20019;-68
2022/07/20 08:44:44;;;;;;;17.15;8.30;;;;;;;38.67;29.02;98543.25;5126002;28;20016;-68
2022/07/20 08:47:14;;;;;;;17.83;7.90;;;;;;;38.17;31.01;98541.81;5125994;28;20023;-68
2022/07/20 08:49:49;;;;;;;19.83;8.70;;;;;;;38.23;29.51;98529.13;5125909;28;20019;-68
2022/07/20 08:52:16;;;;;;;22.40;8.65;;;;;;;37.55;31.37;98513.53;5125696;28;20023;-68
2022/07/20 08:54:42;;;;;;;19.08;7.93;;;;;;;37.44;31.40;98518.75;5125765;28;20034;-68
2022/07/20 08:57:12;;;;;;;15.70;7.88;;;;;;;38.43;30.12;98530.03;5125685;28;20270;-68
2022/07/20 08:59:37;;;;;;;24.60;8.20;;;;;;;38.66;30.96;98525.06;5125937;28;20319;-68
2022/07/20 09:02:05;;;;;;;16.55;7.97;;;;;;;38.88;29.45;98523.81;5125521;28;20027;-68
2022/07/20 09:04:31;;;;;;;18.27;8.18;;;;;;;38.00;30.40;98523.09;5125546;28;20019;-68
2022/07/20 09:06:56;;;;;;;28.38;8.82;;;;;;;36.66;31.87;98497.81;5125516;28;20038;-68
2022/07/20 09:09:22;;;;;;;16.13;8.07;;;;;;;37.61;30.61;98509.16;5125436;28;20023;-68
2022/07/20 09:11:49;;;;;;;18.42;8.52;;;;;;;37.44;30.75;98507.78;5125471;28;20039;-68
2022/07/20 09:14:35;;;;;;;29.92;8.75;;;;;;;38.67;30.56;98516.59;5125312;28;20019;-68
2022/07/20 09:17:14;;;;;;;17.52;7.47;;;;;;;38.26;29.40;98513.09;5125425;28;20019;-68
2022/07/20 09:20:07;;;;;;;15.38;7.10;;;;;;;38.22;29.93;98508.22;5125212;28;20023;-68
2022/07/20 09:22:37;;;;;;;25.65;8.10;;;;;;;38.32;29.67;98511.41;5125164;28;20084;-68
2022/07/20 09:25:06;;;;;;;24.02;7.43;;;;;;;38.27;28.63;98513.91;5125233;28;20026;-68
2022/07/20 09:27:35;;;;;;;16.83;7.50;;;;;;;38.60;28.96;98514.88;5124890;28;20255;-68
2022/07/20 09:30:18;;;;;;;22.15;7.65;;;;;;;38.74;28.32;98511.94;5125084;28;20072;-68
2022/07/20 09:32:54;;;;;;;13.35;7.30;;;;;;;38.92;28.34;98503.06;5125070;28;20332;-68
2022/07/20 09:35:22;;;;;;;21.70;7.18;;;;;;;38.71;29.79;98500.50;5125233;28;20103;-68
2022/07/20 09:37:48;;;;;;;20.58;7.50;;;;;;;38.85;29.28;98513.22;5124972;28;20030;-68
2022/07/20 09:40:13;;;;;;;17.88;7.18;;;;;;;38.84;29.03;98505.16;5124914;28;20023;-68
2022/07/20 09:42:41;;;;;;;17.90;7.43;;;;;;;39.34;28.09;98513.63;5124876;28;20129;-68
2022/07/20 09:45:24;;;;;;;20.98;7.78;;;;;;;39.48;28.81;98509.00;5124848;28;20019;-68
2022/07/20 09:48:12;;;;;;;17.60;7.40;;;;;;;39.49;27.65;98519.78;5124818;28;20051;-68
2022/07/20 09:50:42;;;;;;;12.93;7.07;;;;;;;39.63;27.47;98518.69;5124784;28;20023;-68
2022/07/20 09:53:09;;;;;;;28.40;8.07;;;;;;;39.73;28.12;98529.28;5124943;28;20023;-68
2022/07/20 09:55:37;;;;;;;20.05;7.82;;;;;;;39.53;28.65;98529.31;5124738;28;20032;-68
2022/07/20 09:58:03;;;;;;;15.23;6.80;;;;;;;39.61;27.39;98526.34;5124651;28;20091;-68
2022/07/20 10:00:29;;;;;;;15.05;7.10;;;;;;;39.63;28.09;98513.19;5124570;28;20019;-68
2022/07/20 10:02:57;;;;;;;17.48;6.95;;;;;;;40.05;28.48;98531.91;5124620;28;20031;-68
2022/07/20 10:05:23;;;;;;;16.05;7.75;;;;;;;40.23;27.45;98536.72;5124573;28;20065;-68
2022/07/20 10:07:48;;;;;;;16.83;6.82;;;;;;;40.13;26.77;98520.66;5124536;28;20020;-68
2022/07/20 10:10:14;;;;;;;23.73;7.30;;;;;;;39.63;27.48;98517.84;5124558;28;20027;-68
2022/07/20 10:12:40;;;;;;;17.88;7.68;;;;;;;39.10;28.42;98511.56;5124535;28;20320;-68
2022/07/20 10:15:13;;;;;;;32.97;7.00;;;;;;;38.72;27.97;98518.72;5124445;28;20086;-69
2022/07/20 10:17:39;;;;;;;13.30;6.65;;;;;;;38.34;28.91;98525.81;5124495;28;20023;-69
2022/07/20 10:20:27;;;;;;;20.80;6.80;;;;;;;37.89;29.99;98509.94;5124477;28;20023;-69
2022/07/20 10:23:13;;;;;;;21.70;7.55;;;;;;;36.43;30.83;98510.91;5124428;28;20019;-69
2022/07/20 10:25:39;;;;;;;14.63;6.55;;;;;;;37.17;31.00;98514.13;5124463;28;20028;-69
2022/07/20 10:28:22;;;;;;;18.63;6.85;;;;;;;38.00;28.36;98534.09;5124251;28;20053;-69
2022/07/20 10:30:56;;;;;;;16.60;6.43;;;;;;;38.34;29.36;98523.06;5124340;28;20020;-69
2022/07/20 10:33:23;;;;;;;10.90;6.35;;;;;;;38.52;28.30;98523.31;5124320;28;20029;-69
2022/07/20 10:35:50;;;;;;;13.85;7.38;;;;;;;38.15;29.70;98515.59;5124258;28;20215;-69
2022/07/20 10:38:20;;;;;;;19.33;6.60;;;;;;;38.72;29.26;98524.22;5124246;28;20211;-69
2022/07/20 10:44:20;;;;;;;16.75;6.70;;;;;;;38.44;28.71;98498.75;5124246;28;20223;-69
2022/07/20 10:46:45;;;;;;;18.95;6.78;;;;;;;38.54;28.41;98501.97;5124173;28;20064;-69
2022/07/20 10:49:11;;;;;;;14.85;6.80;;;;;;;38.59;28.72;98508.53;5124103;28;20287;-69
2022/07/20 10:51:37;;;;;;;14.65;7.47;;;;;;;38.07;30.30;98518.47;5124414;28;20304;-69
2022/07/20 10:54:31;;;;;;;14.90;7.88;;;;;;;38.37;29.66;98530.91;5124159;28;20068;-69
2022/07/20 10:56:57;;;;;;;20.90;9.52;;;;;;;38.08;29.61;98531.16;5124093;28;20037;-69
2022/07/20 10:59:23;;;;;;;23.45;10.43;;;;;;;38.33;29.92;98529.59;5124049;28;20019;-69
2022/07/20 11:01:48;;;;;;;27.27;12.32;;;;;;;38.59;31.25;98526.94;5124014;28;20016;-69
2022/07/20 11:04:15;;;;;;;19.70;13.02;;;;;;;38.74;31.81;98527.59;5123996;28;20024;-69
2022/07/20 11:06:41;;;;;;;23.45;14.55;;;;;;;38.00;32.65;98517.63;5127072;28;20307;-69
2022/07/20 11:09:07;;;;;;;34.05;14.90;;;;;;;37.25;35.12;98511.22;5127856;28;20078;-69
2022/07/20 11:11:34;;;;;;;28.80;15.07;;;;;;;37.78;34.78;98519.63;5127811;28;20311;-69
2022/07/20 11:14:02;;;;;;;27.35;15.30;;;;;;;37.87;34.96;98528.56;5128009;28;20125;-69
2022/07/20 11:16:29;;;;;;;26.88;15.35;;;;;;;38.09;35.35;98524.66;5127957;28;20303;-69
2022/07/20 11:18:56;;;;;;;31.58;15.60;;;;;;;37.14;36.64;98500.78;5127621;28;20028;-69
2022/07/20 11:21:40;;;;;;;26.10;16.20;;;;;;;37.31;36.74;98505.81;5127523;28;20030;-69
2022/07/20 11:24:21;;;;;;;31.55;15.82;;;;;;;37.48;35.48;98506.34;5127570;28;20061;-68
2022/07/20 11:26:46;;;;;;;28.17;15.52;;;;;;;37.10;36.73;98508.56;5127457;28;20376;-68
2022/07/20 11:29:14;;;;;;;28.65;15.68;;;;;;;36.57;36.16;98479.81;5127303;28;20052;-68
2022/07/20 11:31:39;;;;;;;25.02;16.13;;;;;;;36.28;37.66;98493.66;5127481;28;20034;-68
2022/07/20 11:34:05;;;;;;;34.38;15.93;;;;;;;35.92;36.58;98479.09;5127347;28;20023;-68